Aviation Digital Data Service (ADDS)

Output produced by METARs form (1124 UTC 11 May 2021)
found at http://www.aviationweather.gov/metar/data/
 
Forecast for: RJCC (CHITOSE (JASDF/C, JP)
Text: TAF RJCC 110505Z 1106/1212 34012KT 9999 FEW010 BKN020
Forecast period: 0600 to 1800 UTC 11 May 2021
Forecast type: FROM: standard forecast or significant change
Winds: from the NNW (340 degrees) at 14 MPH (12 knots; 6.2 m/s)
Visibility: 6 or more miles (10+ km)
Ceiling: 2000 feet AGL
Clouds: few clouds at 1000 feet AGL
broken clouds at 2000 feet AGL
Weather: no significant weather forecast for this period
Text: BECMG 1118/1121 18014KT
Forecast period: 1800 UTC 11 May 2021 to 1200 UTC 12 May 2021
Forecast type: BECOMING: Conditions expected to become as follows by 2100 UTC 11 May 2021
Winds: from the S (180 degrees) at 16 MPH (14 knots; 7.2 m/s)
Visibility: 6 or more miles (10+ km)
Ceiling: 2000 feet AGL
Clouds: few clouds at 1000 feet AGL
broken clouds at 2000 feet AGL
Weather: no significant weather forecast for this period